CFP5 weather

Glendon Airport
Glendon, Alberta, Canada

Public forecast

Using degrees Celsius for public forecast. Weather courtesy of forecast.io.

METAR (pilot weather report)

Closest report is CFB Cold Lake, 28.7 nm (53.2 km) ENE. Retrieved 2019/04/22 06:00 UTC (10 minutes ago):

CYOD 220600Z 13006KT 15SM FEW110 SCT150 BKN210 07/M07 A3011 RMK AC2AC2CI2 SLP215

TAF (pilot weather forecast)

Closest forecast is CFB Cold Lake, 28.7 nm (53.2 km) ENE. Retrieved 2019/04/22 06:35 UTC (0 seconds ago):

TAF CYOD 220530Z 2206/2306 14005KT P6SM SCT130 BKN220 FM221600 17012KT P6SM BKN220 BECMG 2218/2220 23015KT FM230000 23015KT P6SM OVC100 BECMG 2300/2302 22005KT BECMG 2303/2305 30012KT RMK NXT FCST BY 221200Z